Time;durP1;ratioP1;P1;durP2;ratioP2;P2;SDS_P1;SDS_P2;PMS_P1;PMS_P2;Temp;Humidity;BMP_temperature;BMP_pressure;BME280_temperature;BME280_humidity;BME280_pressure;Samples;Min_cycle;Max_cycle;Signal;HPM_P1;HPM_P2
2023/04/14 00:01:39;;;;;;;5.10;4.60;;;;;;;6.87;82.43;99812.16;5033330;28;20206;-81
2023/04/14 00:04:06;;;;;;;4.60;4.10;;;;;;;6.87;81.54;99827.75;5034010;28;20212;-81
2023/04/14 00:06:32;;;;;;;5.60;4.27;;;;;;;6.88;82.16;99835.50;5034034;28;20208;-81
2023/04/14 00:08:59;;;;;;;4.90;4.50;;;;;;;6.94;80.81;99861.38;5034313;28;20229;-81
2023/04/14 00:11:26;;;;;;;6.67;5.87;;;;;;;7.00;80.89;99873.41;5037467;28;20207;-81
2023/04/14 00:13:54;;;;;;;4.73;4.43;;;;;;;7.02;81.25;99888.97;5037041;28;20210;-81
2023/04/14 00:16:21;;;;;;;5.20;4.90;;;;;;;7.09;80.81;99890.56;5037047;28;20214;-81
2023/04/14 00:18:47;;;;;;;4.97;4.47;;;;;;;7.15;80.35;99896.56;5036895;28;20228;-81
2023/04/14 00:21:13;;;;;;;5.20;4.53;;;;;;;7.12;80.73;99914.75;5037097;28;20208;-80
2023/04/14 00:23:40;;;;;;;4.57;4.17;;;;;;;6.99;80.62;99914.94;5037149;28;20646;-81
2023/04/14 00:26:07;;;;;;;4.50;3.90;;;;;;;6.91;80.45;99917.63;5038517;28;20218;-80
2023/04/14 00:28:33;;;;;;;5.30;4.57;;;;;;;6.73;79.64;99936.84;5038642;28;20280;-80
2023/04/14 00:31:01;;;;;;;4.20;3.80;;;;;;;6.50;81.23;99934.50;5038264;28;20206;-81
2023/04/14 00:33:27;;;;;;;4.20;3.77;;;;;;;6.54;81.11;99918.91;5037509;28;20277;-80
2023/04/14 00:35:54;;;;;;;4.20;3.80;;;;;;;6.59;81.66;99912.81;5038232;28;20636;-81
2023/04/14 00:38:20;;;;;;;4.77;3.80;;;;;;;6.69;81.69;99897.13;5037327;28;20282;-81
2023/04/14 00:40:46;;;;;;;3.73;3.50;;;;;;;6.74;80.90;99904.88;5037630;28;20240;-80
2023/04/14 00:43:13;;;;;;;3.53;3.33;;;;;;;6.80;80.74;99917.75;5037722;28;20237;-81
2023/04/14 00:45:44;;;;;;;4.17;3.30;;;;;;;6.86;80.53;99924.63;5037227;28;20202;-80
2023/04/14 00:48:14;;;;;;;4.47;3.43;;;;;;;6.80;80.60;99927.25;5034938;28;20283;-80
2023/04/14 00:50:41;;;;;;;3.50;3.20;;;;;;;6.85;79.46;99941.03;5034590;28;20642;-80
2023/04/14 00:53:08;;;;;;;4.00;3.20;;;;;;;6.70;79.88;99958.50;5034241;28;20212;-81
2023/04/14 00:55:35;;;;;;;3.90;3.10;;;;;;;6.63;81.10;99943.03;5034394;28;20689;-81
2023/04/14 00:58:02;;;;;;;4.03;3.60;;;;;;;6.57;81.51;99930.97;5034023;28;20234;-80
2023/04/14 01:00:28;;;;;;;3.00;2.80;;;;;;;6.55;81.70;99917.19;5034369;28;20210;-80
2023/04/14 01:02:55;;;;;;;3.77;3.43;;;;;;;6.53;81.93;99909.41;5034198;28;20208;-80
2023/04/14 01:05:22;;;;;;;5.00;3.37;;;;;;;6.65;81.92;99911.00;5034366;28;20206;-80
2023/04/14 01:07:50;;;;;;;5.77;4.47;;;;;;;6.67;81.81;99908.41;5033674;28;20263;-81
2023/04/14 01:10:16;;;;;;;4.70;3.80;;;;;;;6.62;81.01;99905.00;5033783;28;20208;-80
2023/04/14 01:12:57;;;;;;;3.83;3.53;;;;;;;6.66;81.17;99912.75;5034255;28;20208;-80
2023/04/14 01:15:33;;;;;;;4.47;4.07;;;;;;;6.64;81.25;99934.34;5034064;28;20692;-81
2023/04/14 01:18:06;;;;;;;5.83;4.33;;;;;;;6.54;80.40;99931.88;5033395;28;20237;-81
2023/04/14 01:20:37;;;;;;;4.60;4.17;;;;;;;6.56;80.95;99932.72;5032745;28;20563;-80
2023/04/14 01:23:07;;;;;;;4.70;4.40;;;;;;;6.59;80.59;99930.97;5034075;28;20232;-80
2023/04/14 01:26:06;;;;;;;4.77;4.37;;;;;;;6.55;80.76;99927.53;5033904;28;20577;-80
2023/04/14 01:28:54;;;;;;;5.60;4.90;;;;;;;6.46;81.70;99910.38;5033507;28;20221;-80
2023/04/14 01:31:25;;;;;;;4.47;4.17;;;;;;;6.51;81.26;99918.09;5034020;28;20211;-80
2023/04/14 01:33:58;;;;;;;4.20;3.80;;;;;;;6.37;81.94;99918.22;5033754;28;20589;-81
2023/04/14 01:36:32;;;;;;;4.00;3.70;;;;;;;6.38;81.44;99914.75;5033728;28;20262;-80
2023/04/14 01:39:03;;;;;;;3.90;3.60;;;;;;;6.37;81.44;99923.41;5033319;28;20661;-80
2023/04/14 01:41:31;;;;;;;5.10;4.43;;;;;;;6.00;83.80;99905.63;5033295;28;20209;-80
2023/04/14 01:44:01;;;;;;;4.30;4.00;;;;;;;5.95;84.31;99874.56;5033804;28;20212;-80
2023/04/14 01:46:28;;;;;;;4.60;4.20;;;;;;;6.10;83.89;99850.25;5033664;28;20651;-80
2023/04/14 01:48:55;;;;;;;4.53;4.13;;;;;;;6.20;83.89;99843.22;5033276;28;20372;-81
2023/04/14 01:51:23;;;;;;;4.60;4.20;;;;;;;6.27;83.14;99844.88;5033979;28;20213;-80
2023/04/14 01:53:51;;;;;;;5.43;4.00;;;;;;;6.35;83.45;99848.25;5033478;28;20211;-80
2023/04/14 01:56:19;;;;;;;4.00;3.70;;;;;;;6.40;83.47;99858.56;5033340;28;20212;-80
2023/04/14 01:58:47;;;;;;;5.13;4.70;;;;;;;6.40;82.78;99865.47;5033222;28;20226;-80
2023/04/14 02:01:15;;;;;;;4.03;3.70;;;;;;;6.23;82.77;99866.53;5033141;28;20206;-80
2023/04/14 02:03:44;;;;;;;4.90;4.40;;;;;;;6.19;82.54;99880.41;5033158;28;20738;-80
2023/04/14 02:06:13;;;;;;;3.93;3.63;;;;;;;6.12;83.05;99883.91;5033344;28;20211;-80
2023/04/14 02:08:41;;;;;;;4.77;4.13;;;;;;;6.14;82.92;99879.56;5032637;28;21108;-80
2023/04/14 02:11:08;;;;;;;4.63;4.23;;;;;;;6.06;83.30;99891.75;5033403;28;20212;-80
2023/04/14 02:13:35;;;;;;;4.53;4.13;;;;;;;6.12;83.39;99883.91;5033103;28;20212;-80
2023/04/14 02:16:05;;;;;;;4.57;4.20;;;;;;;6.11;84.72;99864.94;5033147;28;20207;-80
2023/04/14 02:18:32;;;;;;;4.10;3.57;;;;;;;6.18;84.33;99859.69;5032682;28;20238;-81
2023/04/14 02:21:03;;;;;;;4.00;3.60;;;;;;;6.20;83.71;99869.16;5033144;28;20673;-81
2023/04/14 02:23:31;;;;;;;4.20;3.80;;;;;;;6.16;83.91;99857.97;5033236;28;20226;-80
2023/04/14 02:26:06;;;;;;;4.23;3.67;;;;;;;6.20;84.71;99860.53;5033436;28;20210;-81
2023/04/14 02:28:38;;;;;;;5.30;3.30;;;;;;;6.19;84.65;99864.00;5032978;28;20351;-81
2023/04/14 02:31:08;;;;;;;4.07;3.77;;;;;;;6.11;84.80;99849.38;5032669;28;20740;-80
2023/04/14 02:33:38;;;;;;;3.33;3.03;;;;;;;6.11;84.42;99849.38;5032530;28;20209;-80
2023/04/14 02:36:13;;;;;;;3.20;2.90;;;;;;;6.08;83.39;99849.41;5034626;28;20202;-80
2023/04/14 02:38:45;;;;;;;4.23;3.83;;;;;;;6.06;83.17;99871.03;5035272;28;20228;-81
2023/04/14 02:41:17;;;;;;;4.30;3.70;;;;;;;6.11;83.52;99870.09;5035308;28;20621;-80
2023/04/14 02:43:49;;;;;;;4.10;3.70;;;;;;;6.19;83.21;99884.72;5035383;28;20265;-81
2023/04/14 02:46:18;;;;;;;4.23;3.60;;;;;;;6.27;83.60;99880.31;5035763;28;20258;-81
2023/04/14 02:48:46;;;;;;;4.20;3.80;;;;;;;6.21;83.14;99886.44;5034924;28;20273;-80
2023/04/14 02:51:16;;;;;;;3.20;2.93;;;;;;;6.09;82.78;99891.72;5035810;28;20213;-80
2023/04/14 02:53:43;;;;;;;4.37;3.73;;;;;;;6.10;82.39;99899.47;5035690;28;20236;-80
2023/04/14 02:56:10;;;;;;;3.43;3.13;;;;;;;6.13;83.05;99902.03;5035812;28;20213;-80
2023/04/14 02:58:37;;;;;;;4.23;2.83;;;;;;;6.16;83.07;99893.38;5034826;28;20236;-80
2023/04/14 03:01:04;;;;;;;3.67;2.67;;;;;;;6.22;83.42;99895.06;5035485;28;20279;-81
2023/04/14 03:03:36;;;;;;;3.50;3.20;;;;;;;6.22;83.67;99890.72;5035810;28;20217;-80
2023/04/14 03:06:04;;;;;;;3.63;3.33;;;;;;;6.24;83.94;99891.56;5035692;28;20203;-80
2023/04/14 03:08:33;;;;;;;3.67;3.37;;;;;;;6.19;84.46;99882.13;5035592;28;20242;-81
2023/04/14 03:11:02;;;;;;;3.50;3.20;;;;;;;6.24;85.14;99867.38;5035232;28;20208;-81
2023/04/14 03:13:30;;;;;;;4.10;3.20;;;;;;;6.18;83.55;99865.72;5035780;28;20202;-81
2023/04/14 03:15:58;;;;;;;6.83;3.60;;;;;;;6.17;82.20;99900.28;5035788;28;20204;-81
2023/04/14 03:18:25;;;;;;;3.70;3.40;;;;;;;6.19;81.88;99915.81;5035576;28;20289;-81
2023/04/14 03:20:54;;;;;;;4.13;3.73;;;;;;;6.08;83.61;99911.56;5035572;28;20212;-80
2023/04/14 03:23:23;;;;;;;4.10;3.40;;;;;;;5.95;82.82;99904.81;5035707;28;20210;-81
2023/04/14 03:25:53;;;;;;;4.17;3.87;;;;;;;5.83;83.05;99908.34;5035109;28;20671;-80
2023/04/14 03:28:23;;;;;;;3.40;3.10;;;;;;;5.83;83.74;99915.22;5036207;28;20278;-80
2023/04/14 03:30:52;;;;;;;3.73;3.43;;;;;;;5.87;82.98;99904.00;5034975;28;20642;-80
2023/04/14 03:33:23;;;;;;;3.63;3.00;;;;;;;5.85;83.16;99910.91;5035246;28;20229;-80
2023/04/14 03:35:52;;;;;;;3.43;3.00;;;;;;;5.84;82.46;99942.84;5035632;28;20270;-81
2023/04/14 03:38:22;;;;;;;6.30;4.10;;;;;;;5.75;83.06;99936.03;5034474;28;20262;-81
2023/04/14 03:40:50;;;;;;;5.33;4.87;;;;;;;5.68;82.74;99942.09;5035413;28;20238;-79
2023/04/14 03:43:21;;;;;;;4.93;4.53;;;;;;;5.51;83.19;99934.44;5035042;28;20677;-80
2023/04/14 03:45:48;;;;;;;5.67;4.87;;;;;;;5.40;82.96;99929.34;5038853;28;20208;-81
2023/04/14 03:48:17;;;;;;;4.27;3.83;;;;;;;5.28;83.74;99916.47;5038784;28;20234;-81
2023/04/14 03:50:45;;;;;;;4.27;3.87;;;;;;;5.31;83.19;99906.09;5038501;28;20704;-81
2023/04/14 03:53:13;;;;;;;6.27;3.30;;;;;;;5.24;84.18;99899.25;5038923;28;20636;-80
2023/04/14 03:55:42;;;;;;;4.27;3.90;;;;;;;5.29;84.51;99887.13;5039127;28;20210;-81
2023/04/14 03:58:10;;;;;;;4.70;3.53;;;;;;;5.31;85.62;99869.88;5038891;28;20226;-80
2023/04/14 04:00:39;;;;;;;3.57;3.20;;;;;;;5.38;85.15;99862.06;5038358;28;20210;-81
2023/04/14 04:03:06;;;;;;;4.43;4.03;;;;;;;5.47;84.07;99874.09;5038136;28;20238;-80
2023/04/14 04:05:34;;;;;;;6.13;4.10;;;;;;;5.44;82.82;99902.56;5038949;28;20215;-80
2023/04/14 04:08:03;;;;;;;8.57;5.23;;;;;;;5.31;83.00;99924.22;5038471;28;20239;-81
2023/04/14 04:10:32;;;;;;;4.60;4.20;;;;;;;5.03;84.58;99918.31;5038786;28;20207;-81
2023/04/14 04:13:00;;;;;;;8.20;4.43;;;;;;;4.91;85.49;99904.56;5038171;28;20209;-81
2023/04/14 04:15:28;;;;;;;4.90;4.10;;;;;;;4.98;85.03;99885.59;5038291;28;20204;-80
2023/04/14 04:17:58;;;;;;;5.40;4.40;;;;;;;5.03;84.41;99890.72;5037872;28;20227;-80
2023/04/14 04:20:25;;;;;;;3.80;3.43;;;;;;;4.95;84.73;99900.25;5038293;28;20234;-81
2023/04/14 04:22:55;;;;;;;4.13;3.73;;;;;;;4.97;84.74;99907.16;5038192;28;20260;-80
2023/04/14 04:25:21;;;;;;;5.60;4.27;;;;;;;5.04;83.90;99912.31;5038232;28;20679;-80
2023/04/14 04:27:49;;;;;;;6.07;5.47;;;;;;;5.03;84.21;99910.56;5037793;28;20230;-81
2023/04/14 04:30:18;;;;;;;5.83;5.33;;;;;;;4.86;84.80;99913.25;5037612;28;20199;-80
2023/04/14 04:32:44;;;;;;;5.43;5.03;;;;;;;4.89;85.02;99898.56;5038373;28;20233;-80
2023/04/14 04:35:12;;;;;;;5.20;4.70;;;;;;;4.98;84.62;99895.94;5038040;28;20703;-79
2023/04/14 04:37:39;;;;;;;7.60;4.83;;;;;;;5.06;84.15;99901.06;5037950;28;20230;-80
2023/04/14 04:40:07;;;;;;;5.80;4.80;;;;;;;5.05;83.78;99912.28;5037951;28;20226;-81
2023/04/14 04:42:33;;;;;;;5.00;4.57;;;;;;;5.11;83.44;99929.50;5038061;28;20203;-80
2023/04/14 04:45:00;;;;;;;5.03;4.53;;;;;;;5.08;83.62;99932.97;5037647;28;20259;-80
2023/04/14 04:47:26;;;;;;;5.17;4.77;;;;;;;5.04;84.31;99927.81;5038148;28;20222;-80
2023/04/14 04:49:52;;;;;;;5.57;5.07;;;;;;;4.90;85.46;99902.88;5037576;28;20228;-81
2023/04/14 04:52:20;;;;;;;5.47;5.07;;;;;;;4.83;87.07;99871.88;5037736;28;20229;-80
2023/04/14 04:54:50;;;;;;;5.73;5.23;;;;;;;4.98;86.55;99867.47;5037969;28;20210;-80
2023/04/14 04:57:17;;;;;;;6.60;5.97;;;;;;;4.91;87.10;99870.97;5037598;28;20606;-80
2023/04/14 04:59:43;;;;;;;7.23;6.53;;;;;;;4.64;89.30;99838.38;5036557;28;20252;-80
2023/04/14 05:02:10;;;;;;;6.20;5.70;;;;;;;4.75;89.70;99795.19;5036520;28;20272;-80
2023/04/14 05:04:36;;;;;;;6.10;5.60;;;;;;;4.88;89.20;99793.41;5037944;28;20237;-81
2023/04/14 05:07:03;;;;;;;5.90;5.40;;;;;;;4.97;88.02;99795.94;5037549;28;20675;-81
2023/04/14 05:09:30;;;;;;;5.80;5.30;;;;;;;5.01;87.60;99821.78;5050780;22;20258;-75
2023/04/14 05:11:57;;;;;;;5.30;4.90;;;;;;;5.03;86.61;99838.16;5033238;28;20215;-75
2023/04/14 05:14:24;;;;;;;5.97;5.47;;;;;;;5.07;86.91;99847.59;5033397;28;20230;-77
2023/04/14 05:16:50;;;;;;;7.00;6.37;;;;;;;5.01;89.24;99824.38;5033571;28;20226;-77
2023/04/14 05:19:17;;;;;;;7.00;6.40;;;;;;;5.07;89.03;99803.63;5033336;28;20224;-76
2023/04/14 05:21:44;;;;;;;6.80;6.20;;;;;;;5.07;89.83;99798.47;5033512;28;20206;-76
2023/04/14 05:24:10;;;;;;;7.50;6.80;;;;;;;5.02;91.51;99762.28;5033369;28;20300;-76
2023/04/14 05:26:38;;;;;;;10.83;6.93;;;;;;;5.04;91.75;99745.03;5033091;28;20202;-76
2023/04/14 05:29:04;;;;;;;7.87;7.10;;;;;;;5.12;91.22;99740.66;5033244;28;20206;-76
2023/04/14 05:31:30;;;;;;;6.97;6.37;;;;;;;4.93;91.11;99744.25;5041678;28;20209;-76
2023/04/14 05:33:57;;;;;;;7.07;6.47;;;;;;;5.02;90.83;99745.91;5053084;28;20218;-76
2023/04/14 05:36:23;;;;;;;8.10;6.50;;;;;;;4.93;90.11;99759.75;5052851;28;20283;-76
2023/04/14 05:38:50;;;;;;;8.30;6.97;;;;;;;4.95;90.79;99765.78;5052610;28;20300;-76
2023/04/14 05:41:16;;;;;;;6.70;6.20;;;;;;;5.00;90.09;99771.78;5052611;28;20206;-76
2023/04/14 05:43:44;;;;;;;7.33;6.73;;;;;;;5.03;90.21;99769.16;5052924;28;20260;-77
2023/04/14 05:46:10;;;;;;;6.47;5.97;;;;;;;5.05;90.05;99787.25;5053022;28;20206;-76
2023/04/14 05:48:37;;;;;;;6.80;6.20;;;;;;;5.02;89.91;99795.06;5052278;28;20226;-76
2023/04/14 05:51:03;;;;;;;7.10;6.43;;;;;;;5.04;89.47;99795.91;5052776;28;20696;-76
2023/04/14 05:53:30;;;;;;;6.50;5.90;;;;;;;5.07;89.40;99808.81;5052616;28;20211;-76
2023/04/14 05:55:56;;;;;;;7.40;6.80;;;;;;;5.05;88.90;99818.31;5041513;28;20209;-76
2023/04/14 05:58:25;;;;;;;7.20;6.20;;;;;;;5.12;89.17;99820.84;5051750;28;20231;-77
2023/04/14 06:00:53;;;;;;;5.77;5.30;;;;;;;5.25;89.41;99813.00;5042092;28;20316;-76
2023/04/14 06:03:19;;;;;;;6.57;5.97;;;;;;;5.30;91.20;99796.56;5031830;28;20237;-76
2023/04/14 06:05:47;;;;;;;6.67;5.87;;;;;;;5.23;93.52;99745.72;5022504;28;20205;-75
2023/04/14 06:08:13;;;;;;;8.03;5.77;;;;;;;5.34;94.22;99718.03;5019829;28;20234;-75
2023/04/14 06:10:40;;;;;;;5.87;5.33;;;;;;;5.49;93.49;99714.44;5022337;28;20203;-76
2023/04/14 06:13:07;;;;;;;7.50;6.67;;;;;;;5.53;93.78;99708.38;5017926;28;20207;-76
2023/04/14 06:15:33;;;;;;;6.20;5.70;;;;;;;5.15;95.18;99700.94;5012589;28;20249;-76
2023/04/14 06:18:01;;;;;;;6.63;5.97;;;;;;;5.05;95.89;99674.31;5031116;28;20287;-75
2023/04/14 06:20:28;;;;;;;7.33;6.73;;;;;;;4.82;96.85;99652.97;5051363;28;20574;-76
2023/04/14 06:22:54;;;;;;;8.00;7.30;;;;;;;4.69;98.42;99640.13;5052150;28;20235;-76
2023/04/14 06:25:21;;;;;;;7.70;7.00;;;;;;;4.62;99.63;99607.47;5024607;28;20203;-76
2023/04/14 06:27:47;;;;;;;6.83;6.27;;;;;;;4.55;100.00;99587.69;5020036;28;20215;-76
2023/04/14 06:30:15;;;;;;;8.40;7.60;;;;;;;4.56;100.00;99569.59;5022629;28;20634;-76
2023/04/14 06:32:42;;;;;;;7.87;7.00;;;;;;;4.64;100.00;99566.06;5048033;28;20660;-76
2023/04/14 06:35:10;;;;;;;13.33;9.33;;;;;;;4.72;100.00;99567.75;5051956;28;20202;-76
2023/04/14 06:37:36;;;;;;;8.07;7.37;;;;;;;4.75;100.00;99564.25;5052178;28;20226;-75
2023/04/14 06:40:03;;;;;;;7.57;6.93;;;;;;;4.79;100.00;99555.59;5051621;28;20230;-76
2023/04/14 06:42:29;;;;;;;7.90;7.20;;;;;;;4.86;100.00;99557.25;5050560;28;20684;-76
2023/04/14 06:44:56;;;;;;;8.23;7.37;;;;;;;4.99;100.00;99565.75;5047521;28;20211;-75
2023/04/14 06:47:23;;;;;;;8.17;7.40;;;;;;;5.15;100.00;99577.66;5024390;28;20218;-76
2023/04/14 06:49:49;;;;;;;8.80;7.43;;;;;;;5.29;100.00;99595.63;5024162;28;20210;-77
2023/04/14 06:52:17;;;;;;;8.33;7.40;;;;;;;5.40;99.41;99617.94;5020686;28;20252;-76
2023/04/14 06:54:44;;;;;;;8.57;7.87;;;;;;;5.46;99.31;99617.84;5019573;28;20694;-77
2023/04/14 06:57:10;;;;;;;8.50;7.80;;;;;;;5.54;98.32;99627.22;5021106;28;20365;-77
2023/04/14 06:59:37;;;;;;;8.07;7.00;;;;;;;5.61;98.87;99627.16;5023997;28;20231;-77
2023/04/14 07:02:04;;;;;;;8.17;7.10;;;;;;;5.65;98.23;99639.19;5028807;28;20553;-77
2023/04/14 07:04:30;;;;;;;7.30;6.70;;;;;;;5.67;98.11;99653.84;5023150;28;20264;-77
2023/04/14 07:06:59;;;;;;;8.50;7.60;;;;;;;5.71;98.28;99659.84;5022126;28;20789;-77
2023/04/14 07:09:27;;;;;;;7.73;7.03;;;;;;;5.72;97.74;99662.41;5017866;28;20681;-77
2023/04/14 07:11:55;;;;;;;8.57;7.27;;;;;;;5.73;98.50;99656.38;5020810;28;20294;-77
2023/04/14 07:14:22;;;;;;;8.10;7.40;;;;;;;5.79;99.08;99655.44;5021723;28;20554;-77
2023/04/14 07:16:50;;;;;;;9.33;7.50;;;;;;;5.85;98.83;99646.75;5023100;28;21128;-77
2023/04/14 07:19:16;;;;;;;8.70;8.00;;;;;;;5.93;98.97;99652.69;5028924;28;20288;-77
2023/04/14 07:21:44;;;;;;;10.10;8.50;;;;;;;6.04;98.81;99655.16;5029257;28;20662;-80
2023/04/14 07:24:10;;;;;;;9.33;8.47;;;;;;;6.08;97.71;99662.00;5030771;28;20203;-77
2023/04/14 07:26:38;;;;;;;12.00;9.40;;;;;;;6.15;98.93;99663.66;5027125;28;20250;-77
2023/04/14 07:29:05;;;;;;;9.30;8.40;;;;;;;6.16;99.68;99666.22;5025428;28;20204;-77
2023/04/14 07:31:33;;;;;;;9.23;8.33;;;;;;;6.22;98.82;99660.06;5035977;28;20229;-77
2023/04/14 07:33:59;;;;;;;10.10;9.20;;;;;;;6.28;100.00;99657.44;5046658;28;20210;-78
2023/04/14 07:36:26;;;;;;;9.97;9.10;;;;;;;6.32;100.00;99640.94;5018043;28;20205;-77
2023/04/14 07:38:53;;;;;;;8.87;8.07;;;;;;;6.41;100.00;99632.16;5024490;28;20234;-77
2023/04/14 07:41:19;;;;;;;10.47;9.07;;;;;;;6.49;100.00;99625.13;5028734;28;20268;-77
2023/04/14 07:43:47;;;;;;;9.40;8.63;;;;;;;6.54;100.00;99623.34;5024460;28;20290;-77
2023/04/14 07:46:14;;;;;;;9.57;8.60;;;;;;;6.53;100.00;99638.91;5025159;28;20281;-77
2023/04/14 07:48:40;;;;;;;9.30;8.37;;;;;;;6.57;99.25;99656.97;5024115;28;20290;-77
2023/04/14 07:51:07;;;;;;;9.67;8.77;;;;;;;6.73;99.84;99664.53;5021221;28;20228;-76
2023/04/14 07:53:39;;;;;;;9.03;8.13;;;;;;;6.76;98.73;99687.84;5025631;28;20212;-76
2023/04/14 07:56:05;;;;;;;9.47;8.53;;;;;;;6.89;97.57;99709.25;5028620;28;20209;-76
2023/04/14 07:58:32;;;;;;;9.43;7.67;;;;;;;7.06;96.91;99717.63;5028100;28;20222;-76
2023/04/14 08:00:59;;;;;;;9.17;8.10;;;;;;;7.14;96.73;99726.13;5029745;28;20632;-76
2023/04/14 08:03:26;;;;;;;6.83;6.23;;;;;;;7.25;94.38;99769.22;5031813;28;20209;-76
2023/04/14 08:05:52;;;;;;;7.30;6.67;;;;;;;7.40;93.09;99796.69;5025613;28;20700;-76
2023/04/14 08:08:19;;;;;;;7.73;7.03;;;;;;;7.53;94.54;99792.97;5023093;28;20640;-76
2023/04/14 08:10:45;;;;;;;7.13;6.43;;;;;;;7.73;94.34;99790.03;5034208;28;20444;-76
2023/04/14 08:13:12;;;;;;;5.97;5.33;;;;;;;7.88;93.06;99817.50;5034444;28;20263;-76
2023/04/14 08:15:38;;;;;;;6.93;6.20;;;;;;;8.02;91.23;99843.22;5025650;28;20656;-76
2023/04/14 08:18:06;;;;;;;5.60;5.10;;;;;;;8.11;89.77;99875.13;5023018;28;20229;-76
2023/04/14 08:20:32;;;;;;;5.90;5.40;;;;;;;8.25;87.50;99916.47;5023374;28;20198;-76
2023/04/14 08:22:59;;;;;;;5.30;4.80;;;;;;;8.38;86.55;99953.50;5025910;28;20204;-76
2023/04/14 08:25:25;;;;;;;5.47;4.97;;;;;;;8.49;85.72;99988.03;5025965;28;21029;-76
2023/04/14 08:27:52;;;;;;;4.57;4.17;;;;;;;8.55;82.94;100016.53;5022115;28;20507;-77
2023/04/14 08:30:18;;;;;;;6.07;4.77;;;;;;;8.54;82.54;100077.25;5026740;28;20223;-77
2023/04/14 08:32:44;;;;;;;5.20;4.20;;;;;;;8.58;82.95;100096.25;5045798;28;20207;-77
2023/04/14 08:35:12;;;;;;;4.43;4.03;;;;;;;8.69;82.00;100106.50;5054151;28;20213;-76
2023/04/14 08:37:39;;;;;;;6.43;4.27;;;;;;;8.67;81.81;100132.53;5053348;28;20228;-77
2023/04/14 08:40:09;;;;;;;4.53;4.13;;;;;;;8.75;83.02;100140.22;5053628;28;20199;-77
2023/04/14 08:42:35;;;;;;;5.53;5.03;;;;;;;8.93;81.71;100157.28;5053811;28;20206;-77
2023/04/14 08:45:02;;;;;;;5.33;4.47;;;;;;;9.02;80.75;100175.34;5054119;28;20216;-77
2023/04/14 08:47:31;;;;;;;4.97;4.50;;;;;;;9.05;78.99;100223.91;5053810;28;20231;-77
2023/04/14 08:50:03;;;;;;;5.90;5.13;;;;;;;9.07;79.30;100237.75;5053687;28;20574;-76
2023/04/14 08:52:34;;;;;;;6.10;4.80;;;;;;;9.16;79.54;100237.59;5054033;28;20203;-77
2023/04/14 08:55:03;;;;;;;5.60;5.07;;;;;;;9.20;79.23;100256.66;5053762;28;20218;-78
2023/04/14 08:57:31;;;;;;;5.40;4.90;;;;;;;9.27;78.63;100266.91;5054046;28;20228;-76
2023/04/14 08:59:58;;;;;;;5.40;4.90;;;;;;;9.30;78.93;100276.44;5055164;28;20266;-79
2023/04/14 09:02:25;;;;;;;6.23;4.30;;;;;;;9.35;79.05;100269.41;5050388;28;20233;-78
2023/04/14 09:04:52;;;;;;;4.63;4.23;;;;;;;9.44;81.03;100247.56;5053487;28;20208;-77
2023/04/14 09:07:19;;;;;;;5.67;4.30;;;;;;;9.48;80.38;100238.81;5053658;28;20322;-77
2023/04/14 09:09:47;;;;;;;9.90;4.67;;;;;;;9.63;79.15;100237.66;5053045;28;20223;-76
2023/04/14 09:12:16;;;;;;;4.97;4.50;;;;;;;9.71;78.82;100251.41;5053549;28;20259;-77
2023/04/14 09:14:44;;;;;;;5.07;4.63;;;;;;;9.76;81.26;100220.06;5056695;28;20206;-76
2023/04/14 09:17:10;;;;;;;4.67;4.20;;;;;;;9.82;78.69;100233.81;5058633;28;20738;-75
2023/04/14 09:19:38;;;;;;;5.27;4.63;;;;;;;9.87;79.03;100241.53;5058191;28;20212;-75
2023/04/14 09:22:04;;;;;;;5.00;4.50;;;;;;;9.88;78.74;100241.53;5060260;28;20206;-76
2023/04/14 09:24:33;;;;;;;4.90;4.30;;;;;;;10.00;81.81;100196.09;5055202;28;20215;-76
2023/04/14 09:27:03;;;;;;;4.73;4.33;;;;;;;10.08;78.90;100199.41;5037217;28;20226;-75
2023/04/14 09:29:30;;;;;;;4.07;3.67;;;;;;;10.13;76.77;100230.63;5027784;28;20209;-77
2023/04/14 09:31:57;;;;;;;4.63;3.97;;;;;;;10.17;74.95;100275.72;5038550;28;20644;-77
2023/04/14 09:34:24;;;;;;;5.13;3.77;;;;;;;10.18;76.45;100282.69;5058924;28;20209;-77
2023/04/14 09:37:02;;;;;;;5.47;4.67;;;;;;;10.37;80.66;100249.31;5058511;28;20258;-78
2023/04/14 09:39:28;;;;;;;7.50;4.97;;;;;;;10.60;84.10;100113.91;5054994;28;20204;-77
2023/04/14 09:41:55;;;;;;;5.73;4.27;;;;;;;10.69;79.97;100107.63;5059576;28;20239;-78
2023/04/14 09:44:23;;;;;;;4.43;4.03;;;;;;;10.70;74.86;100208.53;5061331;28;20307;-79
2023/04/14 09:46:57;;;;;;;3.60;3.30;;;;;;;10.68;72.57;100283.41;5045804;28;20218;-78
2023/04/14 09:49:24;;;;;;;8.27;4.73;;;;;;;10.63;73.94;100335.72;5031107;28;20197;-78
2023/04/14 09:51:53;;;;;;;3.20;3.00;;;;;;;10.71;71.80;100348.63;5028559;28;20221;-78
2023/04/14 09:54:23;;;;;;;5.27;4.77;;;;;;;10.86;76.28;100329.13;5022729;28;20286;-78
2023/04/14 09:56:50;;;;;;;3.70;3.37;;;;;;;10.97;74.76;100290.59;5022466;28;20233;-78
2023/04/14 09:59:29;;;;;;;4.63;3.37;;;;;;;11.02;71.60;100348.81;5022636;28;20227;-79
2023/04/14 10:01:58;;;;;;;3.63;3.33;;;;;;;11.09;71.25;100402.63;5052312;28;20255;-78
2023/04/14 10:04:27;;;;;;;4.57;3.67;;;;;;;11.12;69.02;100448.75;5063300;28;20238;-78
2023/04/14 10:06:55;;;;;;;4.03;3.73;;;;;;;11.17;70.49;100477.38;5062088;28;20233;-78
2023/04/14 10:09:22;;;;;;;5.47;4.50;;;;;;;11.23;69.92;100480.72;5063912;28;20235;-78
2023/04/14 10:12:06;;;;;;;3.70;3.40;;;;;;;11.38;70.06;100462.97;5061725;28;20270;-78
2023/04/14 10:14:33;;;;;;;4.90;3.70;;;;;;;11.58;72.65;100420.72;5063447;28;20240;-78
2023/04/14 10:17:01;;;;;;;4.20;3.80;;;;;;;11.83;73.67;100364.31;5064747;28;20281;-78
2023/04/14 10:19:29;;;;;;;4.70;4.30;;;;;;;12.00;68.11;100412.75;5063025;28;20213;-78
2023/04/14 10:21:57;;;;;;;3.83;3.13;;;;;;;12.14;66.52;100485.69;5058356;28;20208;-77
2023/04/14 10:24:24;;;;;;;4.00;3.60;;;;;;;12.26;66.49;100540.31;5047881;28;20204;-78
2023/04/14 10:26:51;;;;;;;3.90;3.60;;;;;;;12.25;65.15;100580.47;5030815;28;20229;-78
2023/04/14 10:29:18;;;;;;;6.43;3.77;;;;;;;12.13;64.60;100633.97;5034641;28;20206;-79
2023/04/14 10:31:49;;;;;;;4.80;3.67;;;;;;;12.20;63.63;100663.47;5056273;28;20227;-79
2023/04/14 10:34:17;;;;;;;4.13;3.60;;;;;;;12.24;64.55;100667.75;4345511;28;10000731;-79
2023/04/14 10:36:45;;;;;;;4.07;3.67;;;;;;;12.36;63.52;100667.47;5023148;28;20277;-78
2023/04/14 10:39:12;;;;;;;3.70;3.40;;;;;;;12.38;63.41;100699.72;5021876;28;20203;-79
2023/04/14 10:41:46;;;;;;;4.53;3.60;;;;;;;12.43;63.68;100697.00;5021774;28;20214;-77
2023/04/14 10:44:27;;;;;;;4.00;3.70;;;;;;;12.41;61.94;100698.81;5026167;28;20276;-78
2023/04/14 10:46:55;;;;;;;4.60;4.30;;;;;;;12.32;61.43;100728.63;5021250;28;20293;-77
2023/04/14 10:49:25;;;;;;;4.17;3.80;;;;;;;12.37;62.27;100744.25;5013786;28;20206;-77
2023/04/14 10:51:51;;;;;;;4.20;3.83;;;;;;;12.55;62.24;100714.16;5012706;28;20264;-77
2023/04/14 10:54:18;;;;;;;3.53;3.23;;;;;;;12.76;61.46;100710.19;5017056;28;20206;-77
2023/04/14 10:57:11;;;;;;;3.83;3.47;;;;;;;12.89;61.34;100714.25;5018509;28;20284;-77
2023/04/14 10:59:41;;;;;;;3.60;3.40;;;;;;;12.98;61.10;100726.28;5020615;28;20282;-78
2023/04/14 11:02:22;;;;;;;3.80;3.50;;;;;;;13.10;59.17;100737.31;5052930;28;20209;-77
2023/04/14 11:05:01;;;;;;;3.50;3.23;;;;;;;13.16;58.38;100773.03;5060619;28;20272;-78
2023/04/14 11:07:30;;;;;;;4.03;3.63;;;;;;;13.21;58.90;100778.13;5060708;28;20303;-78
2023/04/14 11:10:00;;;;;;;3.80;3.50;;;;;;;13.20;59.62;100787.78;5059581;28;20241;-78
2023/04/14 11:12:27;;;;;;;5.80;4.13;;;;;;;13.25;58.70;100791.13;5056170;28;20593;-77
2023/04/14 11:14:55;;;;;;;4.93;3.80;;;;;;;13.25;58.86;100785.88;5059796;28;20214;-79
2023/04/14 11:17:22;;;;;;;3.73;3.23;;;;;;;13.28;57.97;100790.22;5060588;28;20268;-78
2023/04/14 11:19:53;;;;;;;3.23;3.03;;;;;;;13.36;56.86;100811.88;5062385;28;20214;-78
2023/04/14 11:22:40;;;;;;;3.57;2.80;;;;;;;13.53;56.14;100821.09;5062698;28;20236;-78
2023/04/14 11:25:07;;;;;;;3.77;3.47;;;;;;;13.69;56.00;100853.91;5062445;28;20225;-78
2023/04/14 11:27:34;;;;;;;3.53;3.23;;;;;;;13.92;56.73;100849.84;5057246;28;20232;-76
2023/04/14 11:30:01;;;;;;;4.13;3.77;;;;;;;14.24;56.56;100836.69;5054352;28;20247;-77
2023/04/14 11:32:28;;;;;;;4.13;3.73;;;;;;;14.69;55.37;100838.94;5056496;28;20264;-78
2023/04/14 11:34:54;;;;;;;4.40;3.50;;;;;;;15.46;52.99;100852.34;5046822;28;20330;-78
2023/04/14 11:37:20;;;;;;;4.33;3.93;;;;;;;16.47;50.57;100918.25;5043979;28;20231;-78
2023/04/14 11:39:51;;;;;;;3.57;3.27;;;;;;;17.43;48.28;100984.22;5045394;28;20212;-78
2023/04/14 11:42:19;;;;;;;4.37;4.03;;;;;;;17.98;46.58;101086.84;5043301;28;20467;-78